This is the latest recevied weather packets stored in our database for station/object EFTU. If no packets are shown the sender has not sent any weather packets the latest 10 day(s).
| Time | Temp. | Humidity | Pressure | Rain* | Wind** | Luminosity | Snow |
|---|---|---|---|---|---|---|---|
| 1777712826 | 16.67° C | 38% | 1010.4 hPa | - | - | - | - |
| 1777711626 | 16.11° C | 38% | 1010.6 hPa | - | - | - | - |
| 1777710426 | 16.11° C | 40% | 1010.8 hPa | - | - | - | - |
| 1777709226 | 16.11° C | 41% | 1010.9 hPa | - | - | - | - |
| 1777708027 | 15.56° C | 43% | 1011 hPa | - | - | - | - |
| 1777706826 | 16.11° C | 44% | 1011 hPa | - | - | - | - |
| 1777705626 | 15° C | 45% | 1011 hPa | - | - | - | - |
| 1777704426 | 15° C | 46% | 1011 hPa | - | - | - | - |
| 1777703226 | 13.89° C | 49% | 1011.1 hPa | - | - | - | - |
| 1777702026 | 13.33° C | 52% | 1011.1 hPa | - | - | - | - |
| 1777700826 | 12.78° C | 55% | 1011.2 hPa | - | - | - | - |
| 1777699625 | 11.67° C | 61% | 1011.3 hPa | - | - | - | - |
| 1777698426 | 10.56° C | 66% | 1011.4 hPa | - | - | - | - |
| 1777697225 | 9.44° C | 71% | 1011.4 hPa | - | - | - | - |
| 1777696026 | 7.78° C | 79% | 1011.6 hPa | - | - | - | - |
| 1777694825 | 6.67° C | 85% | 1011.7 hPa | - | - | - | - |
| 1777693626 | 3.89° C | 92% | 1011.9 hPa | - | - | - | - |
| 1777692425 | 2.78° C | 97% | 1012 hPa | - | - | - | - |
| 1777691226 | 2.78° C | 98% | 1012.1 hPa | - | - | - | - |
| 1777690025 | 2.78° C | 95% | 1012.2 hPa | - | - | - | - |
| 1777688826 | 3.33° C | 95% | 1012.3 hPa | - | - | - | - |
| 1777687625 | 2.78° C | 97% | 1012.5 hPa | - | - | - | - |
| 1777686425 | 2.78° C | 98% | 1012.6 hPa | - | - | - | - |
| 1777685226 | 2.78° C | 98% | 1012.7 hPa | - | - | - | - |
| 1777684026 | 2.78° C | 97% | 1012.8 hPa | - | - | - | - |
* Rain since midnight (hover to see other rain measurements)
** Current wind speed in m/s (hover to see current wind gust speed)